sensor_id;sensor_type;location;lat;lon;timestamp;P1;durP1;ratioP1;P2;durP2;ratioP2
77111;SDS011;66064;50.226;14.344;2024-03-07T00:01:21;31.33;;;28.52;;
77111;SDS011;66064;50.226;14.344;2024-03-07T00:03:47;32.05;;;28.67;;
77111;SDS011;66064;50.226;14.344;2024-03-07T00:06:14;36.67;;;33.03;;
77111;SDS011;66064;50.226;14.344;2024-03-07T00:08:40;29.77;;;27.20;;
77111;SDS011;66064;50.226;14.344;2024-03-07T00:11:06;31.55;;;28.08;;
77111;SDS011;66064;50.226;14.344;2024-03-07T00:13:32;37.60;;;30.92;;
77111;SDS011;66064;50.226;14.344;2024-03-07T00:16:00;29.95;;;27.00;;
77111;SDS011;66064;50.226;14.344;2024-03-07T00:18:27;33.78;;;30.05;;
77111;SDS011;66064;50.226;14.344;2024-03-07T00:20:54;35.55;;;29.75;;
77111;SDS011;66064;50.226;14.344;2024-03-07T00:23:20;38.20;;;32.95;;
77111;SDS011;66064;50.226;14.344;2024-03-07T00:25:46;37.75;;;33.80;;
77111;SDS011;66064;50.226;14.344;2024-03-07T00:28:15;36.50;;;28.77;;
77111;SDS011;66064;50.226;14.344;2024-03-07T00:30:43;36.90;;;30.50;;
77111;SDS011;66064;50.226;14.344;2024-03-07T00:33:13;37.05;;;32.50;;
77111;SDS011;66064;50.226;14.344;2024-03-07T00:35:39;35.13;;;31.30;;
77111;SDS011;66064;50.226;14.344;2024-03-07T00:38:05;31.48;;;20.45;;
77111;SDS011;66064;50.226;14.344;2024-03-07T00:40:32;36.28;;;29.40;;
77111;SDS011;66064;50.226;14.344;2024-03-07T00:42:58;36.15;;;32.35;;
77111;SDS011;66064;50.226;14.344;2024-03-07T00:45:26;31.67;;;26.65;;
77111;SDS011;66064;50.226;14.344;2024-03-07T00:48:01;38.22;;;30.27;;
77111;SDS011;66064;50.226;14.344;2024-03-07T00:50:27;33.25;;;28.95;;
77111;SDS011;66064;50.226;14.344;2024-03-07T00:52:54;40.67;;;32.92;;
77111;SDS011;66064;50.226;14.344;2024-03-07T00:55:20;32.92;;;29.33;;
77111;SDS011;66064;50.226;14.344;2024-03-07T00:57:46;33.10;;;29.65;;
77111;SDS011;66064;50.226;14.344;2024-03-07T01:00:13;33.28;;;29.73;;
77111;SDS011;66064;50.226;14.344;2024-03-07T01:02:40;33.55;;;22.77;;
77111;SDS011;66064;50.226;14.344;2024-03-07T01:05:10;33.10;;;29.50;;
77111;SDS011;66064;50.226;14.344;2024-03-07T01:07:38;32.70;;;29.30;;
77111;SDS011;66064;50.226;14.344;2024-03-07T01:10:05;37.38;;;31.35;;
77111;SDS011;66064;50.226;14.344;2024-03-07T01:12:34;31.35;;;26.40;;
77111;SDS011;66064;50.226;14.344;2024-03-07T01:15:02;39.45;;;33.50;;
77111;SDS011;66064;50.226;14.344;2024-03-07T01:17:30;33.33;;;29.85;;
77111;SDS011;66064;50.226;14.344;2024-03-07T01:19:56;33.85;;;28.25;;
77111;SDS011;66064;50.226;14.344;2024-03-07T01:22:23;30.52;;;26.73;;
77111;SDS011;66064;50.226;14.344;2024-03-07T01:24:49;34.70;;;22.10;;
77111;SDS011;66064;50.226;14.344;2024-03-07T01:27:19;31.30;;;28.23;;
77111;SDS011;66064;50.226;14.344;2024-03-07T01:29:46;34.80;;;28.33;;
77111;SDS011;66064;50.226;14.344;2024-03-07T01:32:12;36.15;;;28.05;;
77111;SDS011;66064;50.226;14.344;2024-03-07T01:34:38;34.75;;;31.27;;
77111;SDS011;66064;50.226;14.344;2024-03-07T01:37:04;37.00;;;30.63;;
77111;SDS011;66064;50.226;14.344;2024-03-07T01:39:31;35.60;;;29.02;;
77111;SDS011;66064;50.226;14.344;2024-03-07T01:41:57;36.45;;;30.23;;
77111;SDS011;66064;50.226;14.344;2024-03-07T01:44:23;30.17;;;26.48;;
77111;SDS011;66064;50.226;14.344;2024-03-07T01:46:49;37.20;;;32.08;;
77111;SDS011;66064;50.226;14.344;2024-03-07T01:49:16;29.88;;;24.95;;
77111;SDS011;66064;50.226;14.344;2024-03-07T01:51:42;29.92;;;26.90;;
77111;SDS011;66064;50.226;14.344;2024-03-07T01:54:09;35.05;;;31.70;;
77111;SDS011;66064;50.226;14.344;2024-03-07T01:56:36;32.53;;;29.00;;
77111;SDS011;66064;50.226;14.344;2024-03-07T01:59:03;32.80;;;28.13;;
77111;SDS011;66064;50.226;14.344;2024-03-07T02:01:31;31.83;;;26.23;;
77111;SDS011;66064;50.226;14.344;2024-03-07T02:03:57;32.65;;;29.42;;
77111;SDS011;66064;50.226;14.344;2024-03-07T02:06:23;34.20;;;30.65;;
77111;SDS011;66064;50.226;14.344;2024-03-07T02:08:51;34.95;;;31.17;;
77111;SDS011;66064;50.226;14.344;2024-03-07T02:11:17;29.38;;;22.83;;
77111;SDS011;66064;50.226;14.344;2024-03-07T02:13:44;31.25;;;26.20;;
77111;SDS011;66064;50.226;14.344;2024-03-07T02:16:11;31.02;;;26.13;;
77111;SDS011;66064;50.226;14.344;2024-03-07T02:18:37;32.33;;;29.02;;
77111;SDS011;66064;50.226;14.344;2024-03-07T02:21:11;29.88;;;25.25;;
77111;SDS011;66064;50.226;14.344;2024-03-07T02:23:38;30.33;;;26.83;;
77111;SDS011;66064;50.226;14.344;2024-03-07T02:26:04;34.40;;;30.83;;
77111;SDS011;66064;50.226;14.344;2024-03-07T02:28:30;30.98;;;27.95;;
77111;SDS011;66064;50.226;14.344;2024-03-07T02:30:56;34.70;;;30.00;;
77111;SDS011;66064;50.226;14.344;2024-03-07T02:33:23;35.38;;;30.88;;
77111;SDS011;66064;50.226;14.344;2024-03-07T02:35:49;32.63;;;29.13;;
77111;SDS011;66064;50.226;14.344;2024-03-07T02:38:16;32.08;;;28.75;;
77111;SDS011;66064;50.226;14.344;2024-03-07T02:40:43;35.53;;;31.08;;
77111;SDS011;66064;50.226;14.344;2024-03-07T02:43:09;30.27;;;21.45;;
77111;SDS011;66064;50.226;14.344;2024-03-07T02:45:35;31.92;;;28.00;;
77111;SDS011;66064;50.226;14.344;2024-03-07T02:48:01;33.00;;;29.80;;
77111;SDS011;66064;50.226;14.344;2024-03-07T02:50:28;32.33;;;28.88;;
77111;SDS011;66064;50.226;14.344;2024-03-07T02:52:54;29.23;;;26.10;;
77111;SDS011;66064;50.226;14.344;2024-03-07T02:55:20;32.45;;;28.52;;
77111;SDS011;66064;50.226;14.344;2024-03-07T02:57:47;34.78;;;30.80;;
77111;SDS011;66064;50.226;14.344;2024-03-07T03:00:13;26.45;;;19.75;;
77111;SDS011;66064;50.226;14.344;2024-03-07T03:02:46;34.47;;;30.88;;
77111;SDS011;66064;50.226;14.344;2024-03-07T03:05:13;29.70;;;25.58;;
77111;SDS011;66064;50.226;14.344;2024-03-07T03:07:41;30.33;;;21.17;;
77111;SDS011;66064;50.226;14.344;2024-03-07T03:10:07;33.08;;;27.80;;
77111;SDS011;66064;50.226;14.344;2024-03-07T03:12:39;31.65;;;27.98;;
77111;SDS011;66064;50.226;14.344;2024-03-07T03:15:05;33.45;;;27.38;;
77111;SDS011;66064;50.226;14.344;2024-03-07T03:17:33;31.38;;;27.70;;
77111;SDS011;66064;50.226;14.344;2024-03-07T03:19:59;39.70;;;27.30;;
77111;SDS011;66064;50.226;14.344;2024-03-07T03:22:25;33.50;;;28.42;;
77111;SDS011;66064;50.226;14.344;2024-03-07T03:24:52;31.63;;;28.33;;
77111;SDS011;66064;50.226;14.344;2024-03-07T03:27:21;36.45;;;27.75;;
77111;SDS011;66064;50.226;14.344;2024-03-07T03:29:47;34.30;;;27.52;;
77111;SDS011;66064;50.226;14.344;2024-03-07T03:32:16;32.30;;;27.85;;
77111;SDS011;66064;50.226;14.344;2024-03-07T03:34:42;33.05;;;26.27;;
77111;SDS011;66064;50.226;14.344;2024-03-07T03:37:08;33.35;;;26.40;;
77111;SDS011;66064;50.226;14.344;2024-03-07T03:39:34;30.27;;;27.05;;
77111;SDS011;66064;50.226;14.344;2024-03-07T03:42:01;33.22;;;29.38;;
77111;SDS011;66064;50.226;14.344;2024-03-07T03:44:26;33.30;;;29.15;;
77111;SDS011;66064;50.226;14.344;2024-03-07T03:46:54;31.05;;;26.00;;
77111;SDS011;66064;50.226;14.344;2024-03-07T03:49:20;35.78;;;26.70;;
77111;SDS011;66064;50.226;14.344;2024-03-07T03:51:46;35.47;;;30.23;;
77111;SDS011;66064;50.226;14.344;2024-03-07T03:54:12;41.47;;;33.25;;
77111;SDS011;66064;50.226;14.344;2024-03-07T03:56:38;33.92;;;27.17;;
77111;SDS011;66064;50.226;14.344;2024-03-07T03:59:05;35.58;;;31.95;;
77111;SDS011;66064;50.226;14.344;2024-03-07T04:01:32;34.75;;;28.48;;
77111;SDS011;66064;50.226;14.344;2024-03-07T04:03:58;31.52;;;28.17;;
77111;SDS011;66064;50.226;14.344;2024-03-07T04:06:24;33.10;;;28.92;;
77111;SDS011;66064;50.226;14.344;2024-03-07T04:08:51;35.13;;;29.55;;
77111;SDS011;66064;50.226;14.344;2024-03-07T04:11:18;36.78;;;29.25;;
77111;SDS011;66064;50.226;14.344;2024-03-07T04:13:46;42.03;;;31.08;;
77111;SDS011;66064;50.226;14.344;2024-03-07T04:16:14;40.83;;;27.52;;
77111;SDS011;66064;50.226;14.344;2024-03-07T04:18:41;35.67;;;31.52;;
77111;SDS011;66064;50.226;14.344;2024-03-07T04:21:07;42.28;;;31.45;;
77111;SDS011;66064;50.226;14.344;2024-03-07T04:23:36;34.67;;;31.05;;
77111;SDS011;66064;50.226;14.344;2024-03-07T04:26:06;35.58;;;27.45;;
77111;SDS011;66064;50.226;14.344;2024-03-07T04:28:34;37.30;;;30.42;;
77111;SDS011;66064;50.226;14.344;2024-03-07T04:31:00;33.08;;;25.45;;
77111;SDS011;66064;50.226;14.344;2024-03-07T04:33:26;33.38;;;29.00;;
77111;SDS011;66064;50.226;14.344;2024-03-07T04:35:52;29.10;;;25.95;;
77111;SDS011;66064;50.226;14.344;2024-03-07T04:38:18;34.35;;;27.48;;
77111;SDS011;66064;50.226;14.344;2024-03-07T04:40:44;31.73;;;24.77;;
77111;SDS011;66064;50.226;14.344;2024-03-07T04:43:12;29.35;;;20.83;;
77111;SDS011;66064;50.226;14.344;2024-03-07T04:45:38;33.80;;;25.83;;
77111;SDS011;66064;50.226;14.344;2024-03-07T04:48:04;30.08;;;25.30;;
77111;SDS011;66064;50.226;14.344;2024-03-07T04:50:31;33.72;;;21.02;;
77111;SDS011;66064;50.226;14.344;2024-03-07T04:52:56;28.98;;;25.92;;
77111;SDS011;66064;50.226;14.344;2024-03-07T04:55:23;30.80;;;27.63;;
77111;SDS011;66064;50.226;14.344;2024-03-07T04:57:49;32.45;;;26.70;;
77111;SDS011;66064;50.226;14.344;2024-03-07T05:00:15;30.80;;;27.42;;
77111;SDS011;66064;50.226;14.344;2024-03-07T05:02:45;29.63;;;24.77;;
77111;SDS011;66064;50.226;14.344;2024-03-07T05:05:14;31.27;;;26.88;;
77111;SDS011;66064;50.226;14.344;2024-03-07T05:07:41;30.65;;;27.58;;
77111;SDS011;66064;50.226;14.344;2024-03-07T05:10:07;34.83;;;31.55;;
77111;SDS011;66064;50.226;14.344;2024-03-07T05:12:34;35.60;;;28.08;;
77111;SDS011;66064;50.226;14.344;2024-03-07T05:15:00;38.17;;;32.38;;
77111;SDS011;66064;50.226;14.344;2024-03-07T05:17:29;35.50;;;31.65;;
77111;SDS011;66064;50.226;14.344;2024-03-07T05:19:59;36.85;;;32.88;;
77111;SDS011;66064;50.226;14.344;2024-03-07T05:22:25;29.55;;;26.20;;
77111;SDS011;66064;50.226;14.344;2024-03-07T05:24:52;34.10;;;28.08;;
77111;SDS011;66064;50.226;14.344;2024-03-07T05:27:18;30.38;;;23.20;;
77111;SDS011;66064;50.226;14.344;2024-03-07T05:29:45;41.15;;;31.55;;
77111;SDS011;66064;50.226;14.344;2024-03-07T05:34:49;36.47;;;30.95;;
77111;SDS011;66064;50.226;14.344;2024-03-07T05:37:15;36.22;;;31.50;;
77111;SDS011;66064;50.226;14.344;2024-03-07T05:39:41;40.90;;;30.83;;
77111;SDS011;66064;50.226;14.344;2024-03-07T05:42:08;35.15;;;23.20;;
77111;SDS011;66064;50.226;14.344;2024-03-07T05:44:34;34.40;;;30.50;;
77111;SDS011;66064;50.226;14.344;2024-03-07T05:47:00;39.47;;;33.75;;
77111;SDS011;66064;50.226;14.344;2024-03-07T05:49:26;33.42;;;26.83;;
77111;SDS011;66064;50.226;14.344;2024-03-07T05:51:52;40.88;;;33.10;;
77111;SDS011;66064;50.226;14.344;2024-03-07T05:54:19;42.10;;;32.88;;
77111;SDS011;66064;50.226;14.344;2024-03-07T05:56:44;41.58;;;33.83;;
77111;SDS011;66064;50.226;14.344;2024-03-07T05:59:11;46.65;;;32.30;;
77111;SDS011;66064;50.226;14.344;2024-03-07T06:01:37;47.15;;;34.15;;
77111;SDS011;66064;50.226;14.344;2024-03-07T06:04:04;38.13;;;32.33;;
77111;SDS011;66064;50.226;14.344;2024-03-07T06:06:37;42.50;;;36.67;;
77111;SDS011;66064;50.226;14.344;2024-03-07T06:09:04;38.20;;;34.15;;
77111;SDS011;66064;50.226;14.344;2024-03-07T06:14:03;41.78;;;31.98;;
77111;SDS011;66064;50.226;14.344;2024-03-07T06:16:30;39.88;;;35.22;;
77111;SDS011;66064;50.226;14.344;2024-03-07T06:19:01;42.97;;;33.25;;
77111;SDS011;66064;50.226;14.344;2024-03-07T06:21:27;38.80;;;34.00;;
77111;SDS011;66064;50.226;14.344;2024-03-07T06:23:56;44.80;;;33.10;;
77111;SDS011;66064;50.226;14.344;2024-03-07T06:26:26;45.10;;;36.40;;
77111;SDS011;66064;50.226;14.344;2024-03-07T06:29:11;44.63;;;36.75;;
77111;SDS011;66064;50.226;14.344;2024-03-07T06:31:38;42.20;;;32.22;;
77111;SDS011;66064;50.226;14.344;2024-03-07T06:34:04;38.20;;;33.35;;
77111;SDS011;66064;50.226;14.344;2024-03-07T06:36:30;44.63;;;38.80;;
77111;SDS011;66064;50.226;14.344;2024-03-07T06:38:57;47.15;;;31.65;;
77111;SDS011;66064;50.226;14.344;2024-03-07T06:41:23;41.05;;;30.73;;
77111;SDS011;66064;50.226;14.344;2024-03-07T06:43:50;42.25;;;35.20;;
77111;SDS011;66064;50.226;14.344;2024-03-07T06:46:18;41.10;;;36.28;;
77111;SDS011;66064;50.226;14.344;2024-03-07T06:48:46;41.13;;;34.03;;
77111;SDS011;66064;50.226;14.344;2024-03-07T06:51:12;43.80;;;37.90;;
77111;SDS011;66064;50.226;14.344;2024-03-07T06:53:38;42.90;;;34.85;;
77111;SDS011;66064;50.226;14.344;2024-03-07T06:56:05;41.10;;;32.92;;
77111;SDS011;66064;50.226;14.344;2024-03-07T06:58:32;45.28;;;33.40;;
77111;SDS011;66064;50.226;14.344;2024-03-07T07:00:58;46.55;;;35.35;;
77111;SDS011;66064;50.226;14.344;2024-03-07T07:03:26;46.92;;;37.65;;
77111;SDS011;66064;50.226;14.344;2024-03-07T07:05:55;43.30;;;33.45;;
77111;SDS011;66064;50.226;14.344;2024-03-07T07:08:22;41.58;;;33.25;;
77111;SDS011;66064;50.226;14.344;2024-03-07T07:10:49;49.75;;;36.25;;
77111;SDS011;66064;50.226;14.344;2024-03-07T07:13:15;41.00;;;29.90;;
77111;SDS011;66064;50.226;14.344;2024-03-07T07:15:41;40.50;;;34.95;;
77111;SDS011;66064;50.226;14.344;2024-03-07T07:18:06;46.45;;;37.88;;
77111;SDS011;66064;50.226;14.344;2024-03-07T07:20:37;36.92;;;31.85;;
77111;SDS011;66064;50.226;14.344;2024-03-07T07:23:04;40.97;;;32.50;;
77111;SDS011;66064;50.226;14.344;2024-03-07T07:25:30;44.50;;;34.25;;
77111;SDS011;66064;50.226;14.344;2024-03-07T07:27:56;47.30;;;36.17;;
77111;SDS011;66064;50.226;14.344;2024-03-07T07:30:23;41.90;;;34.90;;
77111;SDS011;66064;50.226;14.344;2024-03-07T07:32:49;42.97;;;32.97;;
77111;SDS011;66064;50.226;14.344;2024-03-07T07:35:17;50.10;;;35.85;;
77111;SDS011;66064;50.226;14.344;2024-03-07T07:37:44;38.53;;;33.17;;
77111;SDS011;66064;50.226;14.344;2024-03-07T07:40:12;40.53;;;32.47;;
77111;SDS011;66064;50.226;14.344;2024-03-07T07:42:43;39.13;;;33.25;;
77111;SDS011;66064;50.226;14.344;2024-03-07T07:45:09;40.03;;;34.20;;
77111;SDS011;66064;50.226;14.344;2024-03-07T07:47:42;37.85;;;30.02;;
77111;SDS011;66064;50.226;14.344;2024-03-07T07:50:11;37.08;;;30.83;;
77111;SDS011;66064;50.226;14.344;2024-03-07T07:55:16;36.10;;;28.48;;
77111;SDS011;66064;50.226;14.344;2024-03-07T08:00:14;40.45;;;32.33;;
77111;SDS011;66064;50.226;14.344;2024-03-07T08:02:56;33.80;;;29.85;;
77111;SDS011;66064;50.226;14.344;2024-03-07T08:05:25;38.10;;;31.30;;
77111;SDS011;66064;50.226;14.344;2024-03-07T08:07:54;41.03;;;31.45;;
77111;SDS011;66064;50.226;14.344;2024-03-07T08:10:24;41.15;;;30.00;;
77111;SDS011;66064;50.226;14.344;2024-03-07T08:12:56;33.75;;;28.25;;
77111;SDS011;66064;50.226;14.344;2024-03-07T08:15:25;33.70;;;28.48;;
77111;SDS011;66064;50.226;14.344;2024-03-07T08:17:53;36.33;;;29.50;;
77111;SDS011;66064;50.226;14.344;2024-03-07T08:20:23;37.05;;;28.45;;
77111;SDS011;66064;50.226;14.344;2024-03-07T08:22:51;35.25;;;28.05;;
77111;SDS011;66064;50.226;14.344;2024-03-07T08:25:20;34.08;;;26.70;;
77111;SDS011;66064;50.226;14.344;2024-03-07T08:27:49;44.65;;;33.63;;
77111;SDS011;66064;50.226;14.344;2024-03-07T08:30:16;32.22;;;27.60;;
77111;SDS011;66064;50.226;14.344;2024-03-07T08:32:50;32.55;;;22.38;;
77111;SDS011;66064;50.226;14.344;2024-03-07T08:35:18;29.63;;;26.48;;
77111;SDS011;66064;50.226;14.344;2024-03-07T08:37:45;29.15;;;25.52;;
77111;SDS011;66064;50.226;14.344;2024-03-07T08:40:19;28.17;;;25.08;;
77111;SDS011;66064;50.226;14.344;2024-03-07T08:42:50;32.05;;;25.58;;
77111;SDS011;66064;50.226;14.344;2024-03-07T08:45:17;35.13;;;28.13;;
77111;SDS011;66064;50.226;14.344;2024-03-07T08:47:44;30.50;;;26.27;;
77111;SDS011;66064;50.226;14.344;2024-03-07T08:50:17;32.15;;;25.83;;
77111;SDS011;66064;50.226;14.344;2024-03-07T08:52:47;28.73;;;21.02;;
77111;SDS011;66064;50.226;14.344;2024-03-07T08:55:15;29.90;;;25.13;;
77111;SDS011;66064;50.226;14.344;2024-03-07T08:57:42;27.45;;;24.52;;
77111;SDS011;66064;50.226;14.344;2024-03-07T09:00:12;30.92;;;21.70;;
77111;SDS011;66064;50.226;14.344;2024-03-07T09:02:51;26.70;;;23.77;;
77111;SDS011;66064;50.226;14.344;2024-03-07T09:05:21;27.88;;;18.90;;
77111;SDS011;66064;50.226;14.344;2024-03-07T09:07:48;23.67;;;20.90;;
77111;SDS011;66064;50.226;14.344;2024-03-07T09:10:16;25.63;;;22.85;;
77111;SDS011;66064;50.226;14.344;2024-03-07T09:12:43;27.60;;;24.70;;
77111;SDS011;66064;50.226;14.344;2024-03-07T09:15:10;29.17;;;26.13;;
77111;SDS011;66064;50.226;14.344;2024-03-07T09:17:37;23.52;;;21.00;;
77111;SDS011;66064;50.226;14.344;2024-03-07T09:20:04;30.17;;;25.73;;
77111;SDS011;66064;50.226;14.344;2024-03-07T09:22:32;29.85;;;26.27;;
77111;SDS011;66064;50.226;14.344;2024-03-07T09:24:58;29.27;;;23.77;;
77111;SDS011;66064;50.226;14.344;2024-03-07T09:27:24;32.13;;;23.45;;
77111;SDS011;66064;50.226;14.344;2024-03-07T09:29:51;31.58;;;27.52;;
77111;SDS011;66064;50.226;14.344;2024-03-07T09:32:17;24.55;;;20.02;;
77111;SDS011;66064;50.226;14.344;2024-03-07T09:34:44;23.60;;;21.27;;
77111;SDS011;66064;50.226;14.344;2024-03-07T09:37:09;27.13;;;24.42;;
77111;SDS011;66064;50.226;14.344;2024-03-07T09:39:36;28.90;;;25.38;;
77111;SDS011;66064;50.226;14.344;2024-03-07T09:42:02;27.70;;;24.42;;
77111;SDS011;66064;50.226;14.344;2024-03-07T09:44:28;28.45;;;24.58;;
77111;SDS011;66064;50.226;14.344;2024-03-07T09:46:55;26.65;;;20.50;;
77111;SDS011;66064;50.226;14.344;2024-03-07T09:51:51;30.23;;;23.70;;
77111;SDS011;66064;50.226;14.344;2024-03-07T09:54:22;29.83;;;25.15;;
77111;SDS011;66064;50.226;14.344;2024-03-07T09:56:54;22.30;;;19.77;;
77111;SDS011;66064;50.226;14.344;2024-03-07T09:59:28;25.15;;;21.05;;
77111;SDS011;66064;50.226;14.344;2024-03-07T10:02:01;28.10;;;22.27;;
77111;SDS011;66064;50.226;14.344;2024-03-07T10:04:34;26.10;;;22.05;;
77111;SDS011;66064;50.226;14.344;2024-03-07T10:07:17;26.48;;;23.25;;
77111;SDS011;66064;50.226;14.344;2024-03-07T10:09:44;25.92;;;23.13;;
77111;SDS011;66064;50.226;14.344;2024-03-07T10:12:10;25.58;;;21.73;;
77111;SDS011;66064;50.226;14.344;2024-03-07T10:14:38;26.75;;;23.02;;
77111;SDS011;66064;50.226;14.344;2024-03-07T10:17:04;25.88;;;22.15;;
77111;SDS011;66064;50.226;14.344;2024-03-07T10:19:31;27.90;;;21.90;;
77111;SDS011;66064;50.226;14.344;2024-03-07T10:21:57;23.83;;;20.48;;
77111;SDS011;66064;50.226;14.344;2024-03-07T10:24:27;29.50;;;26.48;;
77111;SDS011;66064;50.226;14.344;2024-03-07T10:26:53;30.95;;;21.67;;
77111;SDS011;66064;50.226;14.344;2024-03-07T10:29:24;33.53;;;23.60;;
77111;SDS011;66064;50.226;14.344;2024-03-07T10:31:50;36.97;;;27.08;;
77111;SDS011;66064;50.226;14.344;2024-03-07T10:34:16;28.88;;;25.40;;
77111;SDS011;66064;50.226;14.344;2024-03-07T10:36:42;26.52;;;23.70;;
77111;SDS011;66064;50.226;14.344;2024-03-07T10:39:09;26.90;;;23.50;;
77111;SDS011;66064;50.226;14.344;2024-03-07T10:41:47;27.95;;;22.70;;
77111;SDS011;66064;50.226;14.344;2024-03-07T10:44:23;30.98;;;24.92;;
77111;SDS011;66064;50.226;14.344;2024-03-07T10:46:57;29.17;;;23.70;;
77111;SDS011;66064;50.226;14.344;2024-03-07T10:49:25;29.35;;;22.60;;
77111;SDS011;66064;50.226;14.344;2024-03-07T10:54:34;30.45;;;23.70;;
77111;SDS011;66064;50.226;14.344;2024-03-07T10:57:23;43.97;;;26.42;;
77111;SDS011;66064;50.226;14.344;2024-03-07T10:59:57;27.63;;;22.10;;
77111;SDS011;66064;50.226;14.344;2024-03-07T11:02:48;26.77;;;23.88;;
77111;SDS011;66064;50.226;14.344;2024-03-07T11:05:24;23.42;;;21.13;;
77111;SDS011;66064;50.226;14.344;2024-03-07T11:07:56;22.48;;;20.27;;
77111;SDS011;66064;50.226;14.344;2024-03-07T11:10:30;18.70;;;16.98;;
77111;SDS011;66064;50.226;14.344;2024-03-07T11:12:56;18.50;;;17.23;;
77111;SDS011;66064;50.226;14.344;2024-03-07T11:15:23;23.48;;;20.90;;
77111;SDS011;66064;50.226;14.344;2024-03-07T11:17:53;27.45;;;24.70;;
77111;SDS011;66064;50.226;14.344;2024-03-07T11:20:41;26.15;;;23.38;;
77111;SDS011;66064;50.226;14.344;2024-03-07T11:23:28;24.20;;;21.73;;
77111;SDS011;66064;50.226;14.344;2024-03-07T11:26:02;23.98;;;21.00;;
77111;SDS011;66064;50.226;14.344;2024-03-07T11:28:37;27.50;;;21.10;;
77111;SDS011;66064;50.226;14.344;2024-03-07T11:33:38;24.33;;;21.75;;
77111;SDS011;66064;50.226;14.344;2024-03-07T11:36:09;26.38;;;21.77;;
77111;SDS011;66064;50.226;14.344;2024-03-07T11:38:47;23.20;;;19.48;;
77111;SDS011;66064;50.226;14.344;2024-03-07T11:41:14;24.65;;;21.50;;
77111;SDS011;66064;50.226;14.344;2024-03-07T11:43:40;20.88;;;15.32;;
77111;SDS011;66064;50.226;14.344;2024-03-07T11:46:08;28.63;;;22.52;;
77111;SDS011;66064;50.226;14.344;2024-03-07T11:48:40;22.88;;;20.73;;
77111;SDS011;66064;50.226;14.344;2024-03-07T11:51:13;22.55;;;20.20;;
77111;SDS011;66064;50.226;14.344;2024-03-07T11:53:40;21.63;;;19.42;;
77111;SDS011;66064;50.226;14.344;2024-03-07T11:56:06;17.52;;;14.73;;
77111;SDS011;66064;50.226;14.344;2024-03-07T11:58:38;19.25;;;17.38;;
77111;SDS011;66064;50.226;14.344;2024-03-07T12:01:13;24.90;;;22.23;;
77111;SDS011;66064;50.226;14.344;2024-03-07T12:03:42;21.48;;;19.27;;
77111;SDS011;66064;50.226;14.344;2024-03-07T12:06:09;19.48;;;17.52;;
77111;SDS011;66064;50.226;14.344;2024-03-07T12:08:38;20.63;;;18.67;;
77111;SDS011;66064;50.226;14.344;2024-03-07T12:11:06;19.60;;;17.92;;
77111;SDS011;66064;50.226;14.344;2024-03-07T12:13:32;22.55;;;20.30;;
77111;SDS011;66064;50.226;14.344;2024-03-07T12:15:58;22.42;;;19.65;;
77111;SDS011;66064;50.226;14.344;2024-03-07T12:18:25;26.45;;;23.67;;
77111;SDS011;66064;50.226;14.344;2024-03-07T12:20:52;22.80;;;20.65;;
77111;SDS011;66064;50.226;14.344;2024-03-07T12:23:24;23.30;;;19.67;;
77111;SDS011;66064;50.226;14.344;2024-03-07T12:26:01;24.08;;;20.90;;
77111;SDS011;66064;50.226;14.344;2024-03-07T12:28:28;24.83;;;21.25;;
77111;SDS011;66064;50.226;14.344;2024-03-07T12:30:58;21.15;;;16.08;;
77111;SDS011;66064;50.226;14.344;2024-03-07T12:33:29;23.90;;;19.48;;
77111;SDS011;66064;50.226;14.344;2024-03-07T12:36:01;21.40;;;19.33;;
77111;SDS011;66064;50.226;14.344;2024-03-07T12:38:32;22.73;;;17.30;;
77111;SDS011;66064;50.226;14.344;2024-03-07T12:41:10;26.67;;;23.38;;
77111;SDS011;66064;50.226;14.344;2024-03-07T12:43:40;24.60;;;20.52;;
77111;SDS011;66064;50.226;14.344;2024-03-07T12:46:11;26.88;;;24.27;;
77111;SDS011;66064;50.226;14.344;2024-03-07T12:48:43;26.58;;;23.92;;
77111;SDS011;66064;50.226;14.344;2024-03-07T12:51:12;22.80;;;16.10;;
77111;SDS011;66064;50.226;14.344;2024-03-07T12:53:43;24.58;;;20.13;;
77111;SDS011;66064;50.226;14.344;2024-03-07T12:56:09;23.00;;;21.00;;
77111;SDS011;66064;50.226;14.344;2024-03-07T12:58:36;26.92;;;24.23;;
77111;SDS011;66064;50.226;14.344;2024-03-07T13:01:04;34.47;;;23.50;;
77111;SDS011;66064;50.226;14.344;2024-03-07T13:03:30;27.13;;;18.48;;
77111;SDS011;66064;50.226;14.344;2024-03-07T13:05:57;28.15;;;24.67;;
77111;SDS011;66064;50.226;14.344;2024-03-07T13:08:27;32.03;;;27.20;;
77111;SDS011;66064;50.226;14.344;2024-03-07T13:10:55;24.40;;;21.30;;
77111;SDS011;66064;50.226;14.344;2024-03-07T13:13:24;22.25;;;20.05;;
77111;SDS011;66064;50.226;14.344;2024-03-07T13:15:50;33.10;;;25.35;;
77111;SDS011;66064;50.226;14.344;2024-03-07T13:18:20;29.38;;;23.95;;
77111;SDS011;66064;50.226;14.344;2024-03-07T13:20:46;20.77;;;18.15;;
77111;SDS011;66064;50.226;14.344;2024-03-07T13:23:14;30.95;;;21.25;;
77111;SDS011;66064;50.226;14.344;2024-03-07T13:25:40;22.40;;;19.58;;
77111;SDS011;66064;50.226;14.344;2024-03-07T13:30:40;23.63;;;20.92;;
77111;SDS011;66064;50.226;14.344;2024-03-07T13:33:07;26.67;;;24.30;;
77111;SDS011;66064;50.226;14.344;2024-03-07T13:35:37;25.90;;;23.08;;
77111;SDS011;66064;50.226;14.344;2024-03-07T13:38:04;21.58;;;18.80;;
77111;SDS011;66064;50.226;14.344;2024-03-07T13:40:33;21.77;;;16.85;;
77111;SDS011;66064;50.226;14.344;2024-03-07T13:43:04;20.85;;;18.63;;
77111;SDS011;66064;50.226;14.344;2024-03-07T13:45:31;21.17;;;18.55;;
77111;SDS011;66064;50.226;14.344;2024-03-07T13:48:10;26.40;;;23.65;;
77111;SDS011;66064;50.226;14.344;2024-03-07T13:50:39;24.35;;;21.88;;
77111;SDS011;66064;50.226;14.344;2024-03-07T13:53:16;22.50;;;16.35;;
77111;SDS011;66064;50.226;14.344;2024-03-07T14:17:44;24.45;;;21.98;;
77111;SDS011;66064;50.226;14.344;2024-03-07T14:29:31;26.17;;;20.33;;
77111;SDS011;66064;50.226;14.344;2024-03-07T14:32:13;21.60;;;19.30;;
77111;SDS011;66064;50.226;14.344;2024-03-07T14:35:31;23.73;;;21.23;;
77111;SDS011;66064;50.226;14.344;2024-03-07T14:37:45;23.92;;;21.17;;
77111;SDS011;66064;50.226;14.344;2024-03-07T14:40:16;25.20;;;22.83;;
77111;SDS011;66064;50.226;14.344;2024-03-07T14:42:46;30.73;;;25.80;;
77111;SDS011;66064;50.226;14.344;2024-03-07T14:45:17;26.85;;;19.88;;
77111;SDS011;66064;50.226;14.344;2024-03-07T14:47:47;24.05;;;18.27;;
77111;SDS011;66064;50.226;14.344;2024-03-07T14:50:21;27.40;;;21.45;;
77111;SDS011;66064;50.226;14.344;2024-03-07T14:52:49;23.05;;;18.80;;
77111;SDS011;66064;50.226;14.344;2024-03-07T14:55:16;21.48;;;19.23;;
77111;SDS011;66064;50.226;14.344;2024-03-07T14:57:45;23.83;;;16.92;;
77111;SDS011;66064;50.226;14.344;2024-03-07T15:00:12;24.88;;;20.92;;
77111;SDS011;66064;50.226;14.344;2024-03-07T15:02:48;24.60;;;21.90;;
77111;SDS011;66064;50.226;14.344;2024-03-07T15:05:15;26.17;;;23.30;;
77111;SDS011;66064;50.226;14.344;2024-03-07T15:07:44;26.80;;;23.40;;